Topeka, KS (66611)

10:52 PM CST die 21o December, anno 2014 (GMT -0600)
Knollwood | Change Station
CLOSE
Current Station
Personal Weather Stations
Location: Topeka, KS
Elevation: 978 ft
Nearby Weather Stations

Elev 978 ft 39.02 °N, 95.70 °W | Updated 10 minutes ago

Aequaliter Nubila
Aequaliter Nubila
44.2 °F
Feels Like 42 °F
N
3.8
Ventus Variabilis Ventus from Inter Austrum et Eurum

Hodie
High -- | Low -- °F
--% Chance of Precip.
Yesterday
High -- | Low -- °F
Precip. -- in
7:38 AM 5:03 PM
New, 0% visible
Pressio 29.73 in
Visibilitas 9.0 milia passuum
Clouds Aequaliter Nubila 1300 ft
Frigus Venti 42 °F
Frigus in quo Ros apparet 41 °F
Umor 89%
Rainfall 0.01 in
Snow Depth Not available.
UV 0 out of 12
Pollen .10 out of 12
Air Quality Not available.
Flu Activity Not available.
METAR KFOE 220353Z AUTO 16011KT 9SM OVC013 08/04 A2972 RMK AO2 SLP066 T00780044

More Conditions Fewer Conditions

Pressio 29.73 in
Visibilitas 9.0 milia passuum
Clouds Aequaliter Nubila 1300 ft
Frigus Venti 42 °F
Frigus in quo Ros apparet 41 °F
Umor 89%
Rainfall 0.01 in
Snow Depth Not available.
UV 0 out of 12
Pollen .10 out of 12
Air Quality Not available.
Flu Activity Not available.
METAR KFOE 220353Z AUTO 16011KT 9SM OVC013 08/04 A2972 RMK AO2 SLP066 T00780044

More Conditions Fewer Conditions

10-Day Weather Forecast

Almanac

Astronomy

Dec. 21, 2014 Rise Set
Actual Time
Civil Twilight
Nautical Twilight
Astronomical Twilight
Moon
Length Of Visible Light
Length of Day
Tomorrow will be .
, % of the Moon is Illuminated

Today's Extremes

State Highs State Lows

Community

WunderPhotos

Upload Photos

1,779,540 photos uploaded!

WunderBlogs® & News

Nearby

Air Quality

  Air Quality AQ Index Pollutant
Not available.

Snow Depth

Station Depth Elevation

Earthquake Activity

City Distance Mag. Time & Date
Minimum magnitude displayed is 2.5.

Coastal Water Temperatures

Locus Calor

Nearby Weather Stations